Flight Track Log - Related Links

Times and Time Zones

All times are in EDT time to prevent confusion due to time zone crossing. See the SKW5550 flight status page for this flight to view local times or setup timezone preferences in your user account.

Time Position Orientation Groundspeed Altitude Reporting Facility
EDT Latitude Longitude Course Direction KTS MPH feet Rate Location/Type
Tue 09:51:25 AM 44.4583 -109.0131 168° South 227 261 10,300  Level Salt Lake Center
Tue 09:52:00 AM 44.2485 -108.7469 158° South  Level Estimated
Tue 09:52:27 AM 44.5097 -108.9475 42° Northeast 242 278 12,400  Level Salt Lake Center
Tue 09:53:00 AM 44.1578 -108.6552 159° South  Level Estimated
Tue 09:53:28 AM 44.4611 -108.8547 126° Southeast 297 342 14,900  Level Salt Lake Center
Tue 09:54:00 AM 44.0496 -108.6144 165° South  Level FlightAware Approximate
Tue 09:54:29 AM 44.3833 -108.7981 152° Southeast 316 364 17,100  Level Salt Lake Center
Tue 09:55:00 AM 43.9593 -108.5222 157° South  Level Estimated
Tue 09:55:31 AM 44.3056 -108.7267 147° Southeast 328 377 18,200  Level Salt Lake Center
Tue 09:56:00 AM 43.8496 -108.4905 168° South  Level FlightAware Approximate
Tue 09:56:32 AM 44.2228 -108.6508 147° Southeast 347 399 20,000  Level Salt Lake Center
Tue 09:57:34 AM 44.1381 -108.5719 146° Southeast 362 417 21,700 1,463 Climbing Salt Lake Center
Tue 09:58:35 AM 44.0514 -108.4936 147° Southeast 370 426 23,000 1,426 Climbing Salt Lake Center
Tue 09:59:36 AM 43.9461 -108.3969 147° Southeast 379 436 24,600 1,317 Climbing Salt Lake Center
Tue 10:00:38 AM 43.8564 -108.3161 147° Southeast 385 443 25,700 1,024 Climbing Salt Lake Center
Tue 10:01:39 AM 43.7658 -108.2347 147° Southeast 390 449 26,700 984 Climbing Salt Lake Center
Tue 10:02:40 AM 43.6733 -108.1500 146° Southeast 399 459 27,700 976 Climbing Salt Lake Center
Tue 10:03:42 AM 43.5817 -108.0664 147° Southeast 398 458 28,700 878 Climbing Salt Lake Center
Tue 10:04:43 AM 43.4886 -107.9844 147° Southeast 399 459 29,500 634 Climbing Salt Lake Center
Tue 10:05:45 AM 43.3950 -107.9006 147° Southeast 403 464 30,000 537 Climbing Salt Lake Center
Tue 10:06:46 AM 43.2789 -107.7983 147° Southeast 413 475 30,600 488 Climbing Salt Lake Center
Tue 10:07:48 AM 43.1819 -107.7139 148° Southeast 414 476 31,000 195 Climbing Salt Lake Center
Tue 10:08:49 AM 43.0839 -107.6269 147° Southeast 421 484 31,000  Level Salt Lake Center
Tue 10:09:51 AM 42.9850 -107.5408 147° Southeast 422 486 31,000  Level Salt Lake Center
Tue 10:10:52 AM 42.8875 -107.4547 147° Southeast 424 488 31,000  Level Salt Lake Center
Tue 10:11:46 AM 42.7903 -107.3697 147° Southeast 428 493 31,000  Level Denver Center
Tue 10:12:47 AM 42.6944 -107.2864 147° Southeast 428 493 31,000  Level Denver Center
Tue 10:13:49 AM 42.5831 -107.1903 148° Southeast 426 490 31,000  Level Denver Center
Tue 10:14:50 AM 42.4864 -107.1083 148° Southeast 427 491 31,000  Level Denver Center
Tue 10:15:52 AM 42.3908 -107.0258 147° Southeast 426 490 31,000  Level Denver Center
Tue 10:16:53 AM 42.2794 -106.9308 148° Southeast 423 487 31,000  Level Denver Center
Tue 10:17:55 AM 42.1819 -106.8494 148° Southeast 428 493 31,000  Level Denver Center
Tue 10:18:57 AM 42.0689 -106.7531 148° Southeast 430 495 31,000  Level Denver Center
Tue 10:19:58 AM 41.9714 -106.6717 148° Southeast 429 494 31,000  Level Denver Center
Tue 10:21:00 AM 41.8583 -106.5764 148° Southeast 429 494 31,000  Level Denver Center
Tue 10:22:02 AM 41.7672 -106.5011 148° Southeast 430 495 31,000  Level Denver Center
Tue 10:23:03 AM 41.6553 -106.4089 148° Southeast 425 489 31,000  Level Denver Center
Tue 10:24:05 AM 41.5581 -106.3281 148° Southeast 429 494 31,000  Level Denver Center
Tue 10:25:07 AM 41.4428 -106.2403 150° Southeast 429 494 31,000  Level Denver Center
Tue 10:26:09 AM 41.3372 -106.1936 162° South 420 483 31,000  Level Denver Center
Tue 10:27:10 AM 41.2139 -106.1411 162° South 416 479 31,000  Level Denver Center
Tue 10:28:12 AM 41.1072 -106.0928 161° South 420 483 31,000 -48 Level Denver Center
Tue 10:29:14 AM 41.0064 -106.0325 156° South 423 487 30,900 -629 Descending Denver Center
Tue 10:30:16 AM 40.8803 -105.9411 151° Southeast 442 509 29,700 -1,415 Descending Denver Center
Tue 10:31:17 AM 40.8067 -105.8072 126° Southeast 453 521 28,000 -1,707 Descending Denver Center
Tue 10:32:19 AM 40.7350 -105.6753 126° Southeast 446 513 26,200 -1,742 Descending Denver Center
Tue 10:33:21 AM 40.6656 -105.5500 126° Southeast 429 494 24,400 -1,742 Descending Denver Center
Tue 10:34:23 AM 40.5969 -105.4275 126° Southeast 420 483 22,600 -1,742 Descending Denver Center
Tue 10:35:25 AM 40.5331 -105.3125 126° Southeast 399 459 20,800 -1,597 Descending Denver Center
Tue 10:36:27 AM 40.4383 -105.1956 137° Southeast 420 483 19,300 -1,403 Descending Denver Center
Tue 10:37:29 AM 40.3475 -105.1186 147° Southeast 389 448 17,900 -1,597 Descending Denver Center
Tue 10:38:31 AM 40.2517 -105.0453 150° Southeast 374 430 16,000 -1,452 Descending Denver Center
Tue 10:39:33 AM 40.1639 -104.9747 148° Southeast 370 426 14,900 -1,065 Descending Denver Center
Tue 10:40:35 AM 40.0781 -104.9067 149° Southeast 362 417 13,800 -1,024 Descending Denver Center
Tue 10:41:36 AM 39.9894 -104.8353 148° Southeast 337 388 12,800 -1,024 Descending Denver Center
Tue 10:42:38 AM 39.9094 -104.8064 165° South 304 350 11,700 -871 Descending Denver Center
Tue 10:43:40 AM 39.8236 -104.8094 182° South 285 328 11,000 -435 Descending Denver Center
Tue 10:44:42 AM 39.7561 -104.8100 180° South 244 281 10,800 -629 Descending Denver Center
Tue 10:45:44 AM 39.6911 -104.8114 181° South 219 252 9,700 -968 Descending Denver Center
Tue 10:46:46 AM 39.6511 -104.7722 143° Southeast 211 243 8,800 -823 Descending Denver Center
Tue 10:47:48 AM 39.6864 -104.7192 49° Northeast 193 222 8,000 -387 Descending Denver Center
Tue 10:48:50 AM 39.7272 -104.6919 27° Northeast 165 190 8,000 -387 Level Denver Center
Tue 10:49:52 AM 39.7753 -104.6881 North 161 185 7,200 -774 Descending Denver Center
Tue 10:50:54 AM 39.8172 -104.6878 360° North 151 174 6,400 -823 Descending Denver Center
Tue 10:51:56 AM 39.8592 -104.6875 360° North 144 166 5,500 -871 Descending Denver Center

Login

Don't have an account? Register now (free) for customized features, flight alerts, and more!